Time;durP1;ratioP1;P1;durP2;ratioP2;P2;SDS_P1;SDS_P2;PMS_P1;PMS_P2;Temp;Humidity;BMP_temperature;BMP_pressure;BME280_temperature;BME280_humidity;BME280_pressure;Samples;Min_cycle;Max_cycle;Signal;HPM_P1;HPM_P2
2023/05/17 00:00:52;;;;;;;;;;;;;;;;;;6135320;23;19960;-92
2023/05/17 00:03:18;;;;;;;;;;;;;;;;;;6134814;23;20286;-91
2023/05/17 00:05:44;;;;;;;;;;;;;;;;;;6159227;23;19951;-94
2023/05/17 00:08:10;;;;;;;;;;;;;;;;;;6159328;23;19928;-93
2023/05/17 00:10:36;;;;;;;;;;;;;;;;;;6134751;23;19958;-92
2023/05/17 00:13:02;;;;;;;;;;;;;;;;;;6160234;23;19921;-93
2023/05/17 00:15:28;;;;;;;;;;;;;;;;;;6159346;23;20269;-92
2023/05/17 00:17:54;;;;;;;;;;;;;;;;;;6159340;23;19920;-94
2023/05/17 00:20:20;;;;;;;;;;;;;;;;;;6159531;23;19963;-91
2023/05/17 00:22:46;;;;;;;;;;;;;;;;;;6134827;23;19927;-93
2023/05/17 00:25:14;;;;;;;;;;;;;;;;;;6134242;23;22769;-94
2023/05/17 00:27:40;;;;;;;;;;;;;;;;;;6134742;23;19916;-93
2023/05/17 00:30:06;;;;;;;;;;;;;;;;;;6135304;23;19916;-93
2023/05/17 00:32:32;;;;;;;;;;;;;;;;;;6160020;23;19922;-94
2023/05/17 00:34:58;;;;;;;;;;;;;;;;;;6185860;23;19991;-95
2023/05/17 00:37:24;;;;;;;;;;;;;;;;;;6159609;23;19932;-93
2023/05/17 00:39:51;;;;;;;;;;;;;;;;;;6134828;23;19920;-94
2023/05/17 00:42:17;;;;;;;;;;;;;;;;;;6135166;23;19923;-94
2023/05/17 00:44:43;;;;;;;;;;;;;;;;;;6135318;23;19916;-94
2023/05/17 00:47:09;;;;;;;;;;;;;;;;;;6134949;23;19916;-95
2023/05/17 00:49:35;;;;;;;;;;;;;;;;;;6134973;23;20072;-94
2023/05/17 00:52:01;;;;;;;;;;;;;;;;;;6159520;23;19922;-95
2023/05/17 00:54:27;;;;;;;;;;;;;;;;;;6135007;23;19916;-93
2023/05/17 00:56:53;;;;;;;;;;;;;;;;;;6159179;23;19924;-95
2023/05/17 00:59:19;;;;;;;;;;;;;;;;;;6159852;23;20003;-93
2023/05/17 01:01:45;;;;;;;;;;;;;;;;;;6134950;23;19920;-95
2023/05/17 01:04:11;;;;;;;;;;;;;;;;;;6135311;23;19920;-95
2023/05/17 01:06:36;;;;;;;;;;;;;;;;;;6186186;23;20027;-93
2023/05/17 01:09:02;;;;;;;;;;;;;;;;;;6134909;23;19995;-92
2023/05/17 01:11:28;;;;;;;;;;;;;;;;;;6186391;23;19923;-91
2023/05/17 01:13:54;;;;;;;;;;;;;;;;;;6159401;23;19930;-94
2023/05/17 01:16:20;;;;;;;;;;;;;;;;;;6135330;23;19994;-91
2023/05/17 01:18:46;;;;;;;;;;;;;;;;;;6159185;23;19991;-94
2023/05/17 01:21:12;;;;;;;;;;;;;;;;;;6159890;23;19921;-93
2023/05/17 01:23:38;;;;;;;;;;;;;;;;;;6159894;23;19931;-92
2023/05/17 01:26:06;;;;;;;;;;;;;;;;;;6158917;23;19923;-93
2023/05/17 01:28:31;;;;;;;;;;;;;;;;;;6159599;23;19924;-93
2023/05/17 01:30:57;;;;;;;;;;;;;;;;;;6134633;23;19916;-93
2023/05/17 01:33:23;;;;;;;;;;;;;;;;;;6134969;23;19959;-93
2023/05/17 01:35:49;;;;;;;;;;;;;;;;;;6159458;23;19916;-93
2023/05/17 01:38:15;;;;;;;;;;;;;;;;;;6136051;23;19924;-93
2023/05/17 01:40:41;;;;;;;;;;;;;;;;;;6137017;23;19928;-94
2023/05/17 01:43:07;;;;;;;;;;;;;;;;;;6160917;23;19919;-92
2023/05/17 01:45:33;;;;;;;;;;;;;;;;;;6161191;23;19921;-93
2023/05/17 01:47:59;;;;;;;;;;;;;;;;;;6187532;23;19917;-93
2023/05/17 01:50:25;;;;;;;;;;;;;;;;;;6160767;23;19982;-94
2023/05/17 01:52:51;;;;;;;;;;;;;;;;;;6136628;23;19916;-95
2023/05/17 01:55:17;;;;;;;;;;;;;;;;;;6161643;23;20377;-95
2023/05/17 01:57:43;;;;;;;;;;;;;;;;;;6161170;23;20315;-93
2023/05/17 02:00:09;;;;;;;;;;;;;;;;;;6161757;23;19920;-94
2023/05/17 02:02:35;;;;;;;;;;;;;;;;;;6136416;23;19920;-94
2023/05/17 02:05:01;;;;;;;;;;;;;;;;;;6136089;23;19923;-92
2023/05/17 02:07:27;;;;;;;;;;;;;;;;;;6161192;23;19963;-93
2023/05/17 02:09:53;;;;;;;;;;;;;;;;;;6161008;23;19916;-92
2023/05/17 02:12:18;;;;;;;;;;;;;;;;;;6136857;23;19917;-91
2023/05/17 02:14:44;;;;;;;;;;;;;;;;;;6161155;23;19920;-92
2023/05/17 02:17:12;;;;;;;;;;;;;;;;;;6136118;23;19916;-93
2023/05/17 02:19:38;;;;;;;;;;;;;;;;;;6136050;23;20318;-93
2023/05/17 02:22:04;;;;;;;;;;;;;;;;;;6136104;23;19916;-94
2023/05/17 02:24:30;;;;;;;;;;;;;;;;;;6135974;23;19916;-94
2023/05/17 02:26:57;;;;;;;;;;;;;;;;;;6160668;23;20290;-93
2023/05/17 02:29:23;;;;;;;;;;;;;;;;;;6161181;23;19916;-94
2023/05/17 02:31:49;;;;;;;;;;;;;;;;;;6160936;23;19983;-94
2023/05/17 02:34:15;;;;;;;;;;;;;;;;;;6161659;23;19931;-94
2023/05/17 02:36:43;;;;;;;;;;;;;;;;;;6135893;23;19927;-92
2023/05/17 02:39:09;;;;;;;;;;;;;;;;;;6160751;23;19916;-93
2023/05/17 02:41:35;;;;;;;;;;;;;;;;;;6161034;23;19920;-92
2023/05/17 02:44:01;;;;;;;;;;;;;;;;;;6136037;23;19946;-93
2023/05/17 02:46:26;;;;;;;;;;;;;;;;;;6160655;23;19924;-93
2023/05/17 02:48:52;;;;;;;;;;;;;;;;;;6135328;23;19916;-92
2023/05/17 02:51:18;;;;;;;;;;;;;;;;;;6160622;23;19916;-91
2023/05/17 02:53:44;;;;;;;;;;;;;;;;;;6161016;23;20019;-94
2023/05/17 02:56:10;;;;;;;;;;;;;;;;;;6137240;23;19983;-92
2023/05/17 02:58:36;;;;;;;;;;;;;;;;;;6136241;23;19924;-92
2023/05/17 03:01:02;;;;;;;;;;;;;;;;;;6160373;23;19921;-91
2023/05/17 03:03:28;;;;;;;;;;;;;;;;;;6135609;23;20310;-94
2023/05/17 03:05:54;;;;;;;;;;;;;;;;;;6135453;23;19923;-94
2023/05/17 03:08:20;;;;;;;;;;;;;;;;;;6135887;23;19924;-94
2023/05/17 03:10:46;;;;;;;;;;;;;;;;;;6160563;23;19916;-93
2023/05/17 03:13:12;;;;;;;;;;;;;;;;;;6160643;23;19916;-95
2023/05/17 03:15:38;;;;;;;;;;;;;;;;;;6160909;23;19920;-93
2023/05/17 03:18:05;;;;;;;;;;;;;;;;;;6187480;23;19923;-95
2023/05/17 03:20:31;;;;;;;;;;;;;;;;;;6160010;23;19926;-94
2023/05/17 03:22:57;;;;;;;;;;;;;;;;;;6160630;23;19947;-91
2023/05/17 03:25:23;;;;;;;;;;;;;;;;;;6161543;23;19923;-93
2023/05/17 03:27:49;;;;;;;;;;;;;;;;;;6160678;23;19923;-93
2023/05/17 03:30:15;;;;;;;;;;;;;;;;;;6160312;23;19955;-93
2023/05/17 03:32:41;;;;;;;;;;;;;;;;;;6135738;23;19916;-94
2023/05/17 03:35:07;;;;;;;;;;;;;;;;;;6135619;23;19923;-93
2023/05/17 03:37:33;;;;;;;;;;;;;;;;;;6135761;23;20307;-93
2023/05/17 03:39:59;;;;;;;;;;;;;;;;;;6160058;23;19920;-94
2023/05/17 03:42:25;;;;;;;;;;;;;;;;;;6159948;23;19927;-94
2023/05/17 03:44:50;;;;;;;;;;;;;;;;;;6136029;23;20057;-92
2023/05/17 03:47:16;;;;;;;;;;;;;;;;;;6135378;23;19916;-94
2023/05/17 03:49:42;;;;;;;;;;;;;;;;;;6135541;23;19948;-94
2023/05/17 03:52:08;;;;;;;;;;;;;;;;;;6160081;23;19971;-96
2023/05/17 03:54:34;;;;;;;;;;;;;;;;;;6186307;23;19927;-94
2023/05/17 03:57:00;;;;;;;;;;;;;;;;;;6135745;23;19926;-93
2023/05/17 03:59:26;;;;;;;;;;;;;;;;;;6135192;23;20246;-93
2023/05/17 04:01:52;;;;;;;;;;;;;;;;;;6135217;23;19960;-92
2023/05/17 04:04:18;;;;;;;;;;;;;;;;;;6159876;23;20183;-95
2023/05/17 04:06:44;;;;;;;;;;;;;;;;;;6160095;23;19987;-92
2023/05/17 04:09:12;;;;;;;;;;;;;;;;;;6134818;23;20246;-94
2023/05/17 04:11:39;;;;;;;;;;;;;;;;;;6159952;23;19917;-93
2023/05/17 04:14:05;;;;;;;;;;;;;;;;;;6134794;23;19923;-92
2023/05/17 04:16:31;;;;;;;;;;;;;;;;;;6135410;23;19916;-93
2023/05/17 04:18:57;;;;;;;;;;;;;;;;;;6135117;23;19960;-94
2023/05/17 04:21:23;;;;;;;;;;;;;;;;;;6159744;23;20014;-93
2023/05/17 04:23:49;;;;;;;;;;;;;;;;;;6135115;23;19920;-95
2023/05/17 04:26:15;;;;;;;;;;;;;;;;;;6159408;23;19927;-94
2023/05/17 04:28:41;;;;;;;;;;;;;;;;;;6134592;23;19952;-93
2023/05/17 04:31:07;;;;;;;;;;;;;;;;;;6159880;23;19916;-94
2023/05/17 04:33:33;;;;;;;;;;;;;;;;;;6135224;23;20017;-95
2023/05/17 04:35:59;;;;;;;;;;;;;;;;;;6160101;23;19920;-95
2023/05/17 04:38:25;;;;;;;;;;;;;;;;;;6159797;23;19923;-95
2023/05/17 04:40:51;;;;;;;;;;;;;;;;;;6135701;23;19927;-95
2023/05/17 04:43:17;;;;;;;;;;;;;;;;;;6159679;23;19916;-94
2023/05/17 04:45:43;;;;;;;;;;;;;;;;;;6135340;23;19965;-94
2023/05/17 04:48:09;;;;;;;;;;;;;;;;;;6160120;23;20427;-94
2023/05/17 04:50:35;;;;;;;;;;;;;;;;;;6135701;23;19920;-95
2023/05/17 04:53:01;;;;;;;;;;;;;;;;;;6135060;23;20257;-92
2023/05/17 04:55:27;;;;;;;;;;;;;;;;;;6159356;23;19928;-94
2023/05/17 04:57:53;;;;;;;;;;;;;;;;;;6141598;23;19924;-93
2023/05/17 05:00:22;;;;;;;;;;;;;;;;;;6159625;23;19920;-93
2023/05/17 05:02:48;;;;;;;;;;;;;;;;;;6160018;23;19916;-95
2023/05/17 05:05:14;;;;;;;;;;;;;;;;;;6162545;23;20449;-95
2023/05/17 05:07:40;;;;;;;;;;;;;;;;;;6141113;23;20263;-95
2023/05/17 05:10:06;;;;;;;;;;;;;;;;;;6141479;23;19916;-96
2023/05/17 05:12:40;;;;;;;;;;;;;;;;;;6164751;23;20330;-95
2023/05/17 05:15:09;;;;;;;;;;;;;;;;;;6190255;23;19920;-95
2023/05/17 05:17:35;;;;;;;;;;;;;;;;;;6139131;23;19920;-93
2023/05/17 05:20:01;;;;;;;;;;;;;;;;;;6162421;23;19920;-95
2023/05/17 05:22:29;;;;;;;;;;;;;;;;;;6138829;23;19940;-90
2023/05/17 05:24:55;;;;;;;;;;;;;;;;;;6136603;23;19935;-94
2023/05/17 05:27:21;;;;;;;;;;;;;;;;;;6161178;23;19924;-93
2023/05/17 05:29:47;;;;;;;;;;;;;;;;;;6137061;23;20242;-94
2023/05/17 05:32:14;;;;;;;;;;;;;;;;;;6136862;23;19920;-94
2023/05/17 05:34:40;;;;;;;;;;;;;;;;;;6137152;23;20035;-91
2023/05/17 05:37:06;;;;;;;;;;;;;;;;;;6161358;23;19920;-92
2023/05/17 05:39:32;;;;;;;;;;;;;;;;;;6162371;23;20003;-94
2023/05/17 05:41:58;;;;;;;;;;;;;;;;;;6136914;23;19932;-94
2023/05/17 05:44:24;;;;;;;;;;;;;;;;;;6161589;23;20158;-93
2023/05/17 05:46:50;;;;;;;;;;;;;;;;;;6136307;23;20078;-93
2023/05/17 05:49:16;;;;;;;;;;;;;;;;;;6187404;23;19916;-94
2023/05/17 05:51:42;;;;;;;;;;;;;;;;;;6161648;23;19944;-95
2023/05/17 05:54:08;;;;;;;;;;;;;;;;;;6162252;23;20068;-94
2023/05/17 05:56:41;;;;;;;;;;;;;;;;;;6166479;23;19992;-95
2023/05/17 05:59:17;;;;;;;;;;;;;;;;;;;;;
2023/05/17 06:01:52;;;;;;;;;;;;;;;;;;6111932;23;19924;-93
2023/05/17 06:04:18;;;;;;;;;;;;;;;;;;6172623;23;19924;-94
2023/05/17 06:06:44;;;;;;;;;;;;;;;;;;6161671;23;19917;-96
2023/05/17 06:09:11;;;;;;;;;;;;;;;;;;6188409;23;19983;-94
2023/05/17 06:11:37;;;;;;;;;;;;;;;;;;6136280;23;19990;-91
2023/05/17 06:14:05;;;;;;;;;;;;;;;;;;6136468;23;19916;-96
2023/05/17 06:16:31;;;;;;;;;;;;;;;;;;6187797;23;19916;-94
2023/05/17 06:18:57;;;;;;;;;;;;;;;;;;6163347;23;19975;-93
2023/05/17 06:21:24;;;;;;;;;;;;;;;;;;6135287;23;19973;-94
2023/05/17 06:23:50;;;;;;;;;;;;;;;;;;6136741;23;19963;-95
2023/05/17 06:26:16;;;;;;;;;;;;;;;;;;6136119;23;19928;-95
2023/05/17 06:29:03;;;;;;;;;;;;;;;;;;6137358;23;19920;-93
2023/05/17 06:31:28;;;;;;;;;;;;;;;;;;6159636;23;19995;-96
2023/05/17 06:33:54;;;;;;;;;;;;;;;;;;6135726;23;19916;-92
2023/05/17 06:36:20;;;;;;;;;;;;;;;;;;6135554;23;19923;-94
2023/05/17 06:38:46;;;;;;;;;;;;;;;;;;6135144;23;19938;-92
2023/05/17 06:41:12;;;;;;;;;;;;;;;;;;6186292;23;20358;-93
2023/05/17 06:43:38;;;;;;;;;;;;;;;;;;6136099;23;19963;-91
2023/05/17 06:46:03;;;;;;;;;;;;;;;;;;6135714;23;20007;-93
2023/05/17 06:48:29;;;;;;;;;;;;;;;;;;6135736;23;19916;-91
2023/05/17 06:50:55;;;;;;;;;;;;;;;;;;6160247;23;19987;-93
2023/05/17 06:53:21;;;;;;;;;;;;;;;;;;6136144;23;19916;-92
2023/05/17 06:55:47;;;;;;;;;;;;;;;;;;6159267;23;19990;-94
2023/05/17 06:58:13;;;;;;;;;;;;;;;;;;6159852;23;20310;-92
2023/05/17 07:00:39;;;;;;;;;;;;;;;;;;6185895;23;19968;-92
2023/05/17 07:03:05;;;;;;;;;;;;;;;;;;6135010;23;19998;-91
2023/05/17 07:05:31;;;;;;;;;;;;;;;;;;6135129;23;19916;-91
2023/05/17 07:07:57;;;;;;;;;;;;;;;;;;6159318;23;19916;-92
2023/05/17 07:10:23;;;;;;;;;;;;;;;;;;6135407;23;19916;-92
2023/05/17 07:12:49;;;;;;;;;;;;;;;;;;6186002;23;20122;-91
2023/05/17 07:15:15;;;;;;;;;;;;;;;;;;6135071;23;20272;-90
2023/05/17 07:17:41;;;;;;;;;;;;;;;;;;6134411;23;19916;-90
2023/05/17 07:20:07;;;;;;;;;;;;;;;;;;6185352;23;20322;-91
2023/05/17 07:22:33;;;;;;;;;;;;;;;;;;6159420;23;20326;-92
2023/05/17 07:24:59;;;;;;;;;;;;;;;;;;6135073;23;19943;-90
2023/05/17 07:27:25;;;;;;;;;;;;;;;;;;6134431;23;19920;-92
2023/05/17 07:29:51;;;;;;;;;;;;;;;;;;6185819;23;20027;-92
2023/05/17 07:32:17;;;;;;;;;;;;;;;;;;6160180;23;20319;-90
2023/05/17 07:34:43;;;;;;;;;;;;;;;;;;6160755;23;19920;-91
2023/05/17 07:37:09;;;;;;;;;;;;;;;;;;6161506;23;19916;-93
2023/05/17 07:39:34;;;;;;;;;;;;;;;;;;6187573;23;19956;-92
2023/05/17 07:42:00;;;;;;;;;;;;;;;;;;6136153;23;19916;-92
2023/05/17 07:44:26;;;;;;;;;;;;;;;;;;6187515;23;19916;-92
2023/05/17 07:46:52;;;;;;;;;;;;;;;;;;6161147;23;20233;-92
2023/05/17 07:49:18;;;;;;;;;;;;;;;;;;6139267;23;20322;-91
2023/05/17 07:51:44;;;;;;;;;;;;;;;;;;6139321;23;20015;-91
2023/05/17 07:54:10;;;;;;;;;;;;;;;;;;6174424;23;19927;-93
2023/05/17 07:56:36;;;;;;;;;;;;;;;;;;6151380;23;19920;-88
2023/05/17 07:59:02;;;;;;;;;;;;;;;;;;6176116;23;19916;-90
2023/05/17 08:01:28;;;;;;;;;;;;;;;;;;6175595;23;19920;-91
2023/05/17 08:03:54;;;;;;;;;;;;;;;;;;6187739;23;20223;-90
2023/05/17 08:06:20;;;;;;;;;;;;;;;;;;6185242;23;19916;-90
2023/05/17 08:08:46;;;;;;;;;;;;;;;;;;6158265;23;19926;-88
2023/05/17 08:11:11;;;;;;;;;;;;;;;;;;6184825;23;19917;-88
2023/05/17 08:13:37;;;;;;;;;;;;;;;;;;6158512;23;19917;-89
2023/05/17 08:16:06;;;;;;;;;;;;;;;;;;6158070;23;20287;-88
2023/05/17 08:18:32;;;;;;;;;;;;;;;;;;6133868;23;19924;-90
2023/05/17 08:20:58;;;;;;;;;;;;;;;;;;6134174;23;19921;-90
2023/05/17 08:23:24;;;;;;;;;;;;;;;;;;6134100;23;19920;-89
2023/05/17 08:25:50;;;;;;;;;;;;;;;;;;6134694;23;19917;-88
2023/05/17 08:28:16;;;;;;;;;;;;;;;;;;6158257;23;19920;-89
2023/05/17 08:30:42;;;;;;;;;;;;;;;;;;6159095;23;19967;-89
2023/05/17 08:33:08;;;;;;;;;;;;;;;;;;6133644;23;19920;-90
2023/05/17 08:35:34;;;;;;;;;;;;;;;;;;6133937;23;19982;-92
2023/05/17 08:38:00;;;;;;;;;;;;;;;;;;6158277;23;19916;-91
2023/05/17 08:40:26;;;;;;;;;;;;;;;;;;6158908;23;20002;-89
2023/05/17 08:42:51;;;;;;;;;;;;;;;;;;6158382;23;19924;-91
2023/05/17 08:45:17;;;;;;;;;;;;;;;;;;6133584;23;19951;-90
2023/05/17 08:47:45;;;;;;;;;;;;;;;;;;6157930;23;19991;-89
2023/05/17 08:50:11;;;;;;;;;;;;;;;;;;6133234;23;19917;-89
2023/05/17 08:52:37;;;;;;;;;;;;;;;;;;6157985;23;19916;-89
2023/05/17 08:55:07;;;;;;;;;;;;;;;;;;6133600;23;20343;-89
2023/05/17 08:57:33;;;;;;;;;;;;;;;;;;6158262;23;19987;-89
2023/05/17 09:00:11;;;;;;;;;;;;;;;;;;6157537;23;19967;-89
2023/05/17 09:02:37;;;;;;;;;;;;;;;;;;6157948;23;19917;-88
2023/05/17 09:05:04;;;;;;;;;;;;;;;;;;6133915;23;19990;-89
2023/05/17 09:07:30;;;;;;;;;;;;;;;;;;6157581;23;20342;-89
2023/05/17 09:09:57;;;;;;;;;;;;;;;;;;6158188;23;19996;-90
2023/05/17 09:12:23;;;;;;;;;;;;;;;;;;6133751;23;19920;-89
2023/05/17 09:14:49;;;;;;;;;;;;;;;;;;6184863;23;19916;-89
2023/05/17 09:17:15;;;;;;;;;;;;;;;;;;6133315;23;19920;-90
2023/05/17 09:19:41;;;;;;;;;;;;;;;;;;6158302;23;19920;-90
2023/05/17 09:22:07;;;;;;;;;;;;;;;;;;6184844;23;19951;-89
2023/05/17 09:24:32;;;;;;;;;;;;;;;;;;6133493;23;19995;-88
2023/05/17 09:26:58;;;;;;;;;;;;;;;;;;6157545;23;20050;-88
2023/05/17 09:29:24;;;;;;;;;;;;;;;;;;6184671;23;19920;-88
2023/05/17 09:31:50;;;;;;;;;;;;;;;;;;6157837;23;19924;-87
2023/05/17 09:34:16;;;;;;;;;;;;;;;;;;6157709;23;19982;-89
2023/05/17 09:36:42;;;;;;;;;;;;;;;;;;6157827;23;19939;-88
2023/05/17 09:39:11;;;;;;;;;;;;;;;;;;6184928;23;20256;-89
2023/05/17 09:41:37;;;;;;;;;;;;;;;;;;6133175;23;19971;-89
2023/05/17 09:44:03;;;;;;;;;;;;;;;;;;6184528;23;19924;-88
2023/05/17 09:46:29;;;;;;;;;;;;;;;;;;6184601;23;19923;-89
2023/05/17 09:48:55;;;;;;;;;;;;;;;;;;6158211;23;19932;-91
2023/05/17 09:51:21;;;;;;;;;;;;;;;;;;6158585;23;19917;-89
2023/05/17 09:53:47;;;;;;;;;;;;;;;;;;6134391;23;19916;-89
2023/05/17 09:56:13;;;;;;;;;;;;;;;;;;6187525;23;19931;-88
2023/05/17 09:58:39;;;;;;;;;;;;;;;;;;6160886;23;19922;-89
2023/05/17 10:01:06;;;;;;;;;;;;;;;;;;6135500;23;19963;-89
2023/05/17 10:03:32;;;;;;;;;;;;;;;;;;6137375;23;19950;-90
2023/05/17 10:05:58;;;;;;;;;;;;;;;;;;6162269;23;19916;-89
2023/05/17 10:08:26;;;;;;;;;;;;;;;;;;6135339;23;19925;-88
2023/05/17 10:10:52;;;;;;;;;;;;;;;;;;6135090;23;19916;-89
2023/05/17 10:13:18;;;;;;;;;;;;;;;;;;6185825;23;19927;-88
2023/05/17 10:15:44;;;;;;;;;;;;;;;;;;6186026;23;19924;-90
2023/05/17 10:18:10;;;;;;;;;;;;;;;;;;6134717;23;19979;-89
2023/05/17 10:20:36;;;;;;;;;;;;;;;;;;6159172;23;19924;-92
2023/05/17 10:23:04;;;;;;;;;;;;;;;;;;6136494;23;20323;-91
2023/05/17 10:25:29;;;;;;;;;;;;;;;;;;6159557;23;20326;-90
2023/05/17 10:27:55;;;;;;;;;;;;;;;;;;6185979;23;19922;-89
2023/05/17 10:30:25;;;;;;;;;;;;;;;;;;6135291;23;19928;-89
2023/05/17 10:32:51;;;;;;;;;;;;;;;;;;6185893;23;20250;-89
2023/05/17 10:35:17;;;;;;;;;;;;;;;;;;6134379;23;20223;-90
2023/05/17 10:37:43;;;;;;;;;;;;;;;;;;6158665;23;19924;-89
2023/05/17 10:40:11;;;;;;;;;;;;;;;;;;6134197;23;20361;-89
2023/05/17 10:42:37;;;;;;;;;;;;;;;;;;6185905;23;19923;-91
2023/05/17 10:45:03;;;;;;;;;;;;;;;;;;6160227;23;19917;-92
2023/05/17 10:47:29;;;;;;;;;;;;;;;;;;6137687;23;19916;-92
2023/05/17 10:49:55;;;;;;;;;;;;;;;;;;6137013;23;19920;-90
2023/05/17 10:52:26;;;;;;;;;;;;;;;;;;6135069;23;20214;-92
2023/05/17 10:54:52;;;;;;;;;;;;;;;;;;6159393;23;19916;-91
2023/05/17 10:57:18;;;;;;;;;;;;;;;;;;6158971;23;19916;-92
2023/05/17 10:59:44;;;;;;;;;;;;;;;;;;6133927;23;19920;-92
2023/05/17 11:02:10;;;;;;;;;;;;;;;;;;6133879;23;19996;-91
2023/05/17 11:04:36;;;;;;;;;;;;;;;;;;6158489;23;19917;-91
2023/05/17 11:07:02;;;;;;;;;;;;;;;;;;6185386;23;19943;-91
2023/05/17 11:09:28;;;;;;;;;;;;;;;;;;6134532;23;19916;-91
2023/05/17 11:11:54;;;;;;;;;;;;;;;;;;6158857;23;20333;-90
2023/05/17 11:14:20;;;;;;;;;;;;;;;;;;6134704;23;19987;-91
2023/05/17 11:16:46;;;;;;;;;;;;;;;;;;6134241;23;19927;-92
2023/05/17 11:19:12;;;;;;;;;;;;;;;;;;6159003;23;20268;-91
2023/05/17 11:21:37;;;;;;;;;;;;;;;;;;6134557;23;19920;-90
2023/05/17 11:24:04;;;;;;;;;;;;;;;;;;6185544;23;19923;-92
2023/05/17 11:26:30;;;;;;;;;;;;;;;;;;6134236;23;19916;-92
2023/05/17 11:28:56;;;;;;;;;;;;;;;;;;6133990;23;19971;-91
2023/05/17 11:31:22;;;;;;;;;;;;;;;;;;6134022;23;19920;-90
2023/05/17 11:33:48;;;;;;;;;;;;;;;;;;6185252;23;20031;-90
2023/05/17 11:36:14;;;;;;;;;;;;;;;;;;6158893;23;20312;-90
2023/05/17 11:38:40;;;;;;;;;;;;;;;;;;6134071;23;20157;-90
2023/05/17 11:41:06;;;;;;;;;;;;;;;;;;6158806;23;19967;-90
2023/05/17 11:43:34;;;;;;;;;;;;;;;;;;6158950;23;19986;-89
2023/05/17 11:46:04;;;;;;;;;;;;;;;;;;6133108;23;19991;-88
2023/05/17 11:48:30;;;;;;;;;;;;;;;;;;6158165;23;20093;-88
2023/05/17 11:50:56;;;;;;;;;;;;;;;;;;6158395;23;19970;-89
2023/05/17 11:53:22;;;;;;;;;;;;;;;;;;6185087;23;19920;-90
2023/05/17 11:55:49;;;;;;;;;;;;;;;;;;6158279;23;19917;-88
2023/05/17 11:58:15;;;;;;;;;;;;;;;;;;6133629;23;19991;-87
2023/05/17 12:00:41;;;;;;;;;;;;;;;;;;6158076;23;19962;-90
2023/05/17 12:03:07;;;;;;;;;;;;;;;;;;6133748;23;19916;-89
2023/05/17 12:05:33;;;;;;;;;;;;;;;;;;6133668;23;19917;-91
2023/05/17 12:07:59;;;;;;;;;;;;;;;;;;6133723;23;19916;-88
2023/05/17 12:10:25;;;;;;;;;;;;;;;;;;6158169;23;20405;-89
2023/05/17 12:12:50;;;;;;;;;;;;;;;;;;6184686;23;19990;-89
2023/05/17 12:15:16;;;;;;;;;;;;;;;;;;6184986;23;19939;-89
2023/05/17 12:17:43;;;;;;;;;;;;;;;;;;6133476;23;19924;-89
2023/05/17 12:20:09;;;;;;;;;;;;;;;;;;6157576;23;20390;-88
2023/05/17 12:22:35;;;;;;;;;;;;;;;;;;6133337;23;19924;-88
2023/05/17 12:25:02;;;;;;;;;;;;;;;;;;6158005;23;19962;-88
2023/05/17 12:27:30;;;;;;;;;;;;;;;;;;6157953;23;19968;-88
2023/05/17 12:29:56;;;;;;;;;;;;;;;;;;6185376;23;19923;-88
2023/05/17 12:32:22;;;;;;;;;;;;;;;;;;6133563;23;19920;-88
2023/05/17 12:34:48;;;;;;;;;;;;;;;;;;6133473;23;19999;-88
2023/05/17 12:37:14;;;;;;;;;;;;;;;;;;6133591;23;20242;-88
2023/05/17 12:39:40;;;;;;;;;;;;;;;;;;6157977;23;19916;-88
2023/05/17 12:42:05;;;;;;;;;;;;;;;;;;6184301;23;19916;-88
2023/05/17 12:44:31;;;;;;;;;;;;;;;;;;6157897;23;20339;-88
2023/05/17 12:46:57;;;;;;;;;;;;;;;;;;6157914;23;19942;-88
2023/05/17 12:49:23;;;;;;;;;;;;;;;;;;6133301;23;19920;-88
2023/05/17 12:51:49;;;;;;;;;;;;;;;;;;6158215;23;20031;-88
2023/05/17 12:54:15;;;;;;;;;;;;;;;;;;6184333;23;20297;-87
2023/05/17 12:56:42;;;;;;;;;;;;;;;;;;6157823;23;19987;-87
2023/05/17 12:59:08;;;;;;;;;;;;;;;;;;6157667;23;19920;-88
2023/05/17 13:01:34;;;;;;;;;;;;;;;;;;6132957;23;20578;-88
2023/05/17 13:04:00;;;;;;;;;;;;;;;;;;6157777;23;19923;-88
2023/05/17 13:06:26;;;;;;;;;;;;;;;;;;6157609;23;19916;-88
2023/05/17 13:08:52;;;;;;;;;;;;;;;;;;6157662;23;19916;-87
2023/05/17 13:11:18;;;;;;;;;;;;;;;;;;6157813;23;19967;-88
2023/05/17 13:13:44;;;;;;;;;;;;;;;;;;6157530;23;20302;-87
2023/05/17 13:16:09;;;;;;;;;;;;;;;;;;6157934;23;19916;-88
2023/05/17 13:18:35;;;;;;;;;;;;;;;;;;6157295;23;19916;-88
2023/05/17 13:21:01;;;;;;;;;;;;;;;;;;6158051;23;20322;-88
2023/05/17 13:23:27;;;;;;;;;;;;;;;;;;6158244;23;19916;-87
2023/05/17 13:25:53;;;;;;;;;;;;;;;;;;6184397;23;19916;-87
2023/05/17 13:28:19;;;;;;;;;;;;;;;;;;6184588;23;19916;-88
2023/05/17 13:30:50;;;;;;;;;;;;;;;;;;6157912;23;19987;-88
2023/05/17 13:33:16;;;;;;;;;;;;;;;;;;6158114;23;19916;-88
2023/05/17 13:35:42;;;;;;;;;;;;;;;;;;6159862;23;19927;-89
2023/05/17 13:38:08;;;;;;;;;;;;;;;;;;6159458;23;19917;-89
2023/05/17 13:40:34;;;;;;;;;;;;;;;;;;6159669;23;20353;-88
2023/05/17 13:43:00;;;;;;;;;;;;;;;;;;6159478;23;19945;-88
2023/05/17 13:45:26;;;;;;;;;;;;;;;;;;6134733;23;19995;-90
2023/05/17 13:47:52;;;;;;;;;;;;;;;;;;6159333;23;19916;-88
2023/05/17 13:50:19;;;;;;;;;;;;;;;;;;6186111;23;20006;-88
2023/05/17 13:52:45;;;;;;;;;;;;;;;;;;6134763;23;19920;-87
2023/05/17 13:55:11;;;;;;;;;;;;;;;;;;6134865;23;19916;-88
2023/05/17 13:57:37;;;;;;;;;;;;;;;;;;6134671;23;19917;-88
2023/05/17 14:00:04;;;;;;;;;;;;;;;;;;6159275;23;19927;-87
2023/05/17 14:02:30;;;;;;;;;;;;;;;;;;6159771;23;19978;-87
2023/05/17 14:04:56;;;;;;;;;;;;;;;;;;6185963;23;19916;-87
2023/05/17 14:07:22;;;;;;;;;;;;;;;;;;6185841;23;20245;-88
2023/05/17 14:09:48;;;;;;;;;;;;;;;;;;6159564;23;19948;-88
2023/05/17 14:12:14;;;;;;;;;;;;;;;;;;6159353;23;19974;-87
2023/05/17 14:14:40;;;;;;;;;;;;;;;;;;6159370;23;20295;-87
2023/05/17 14:17:06;;;;;;;;;;;;;;;;;;6134791;23;19916;-88
2023/05/17 14:19:32;;;;;;;;;;;;;;;;;;6185996;23;20342;-88
2023/05/17 14:21:58;;;;;;;;;;;;;;;;;;6159285;23;19940;-88
2023/05/17 14:24:23;;;;;;;;;;;;;;;;;;6159126;23;19916;-87
2023/05/17 14:26:50;;;;;;;;;;;;;;;;;;6159471;23;19992;-87
2023/05/17 14:29:15;;;;;;;;;;;;;;;;;;6159095;23;19967;-88
2023/05/17 14:31:42;;;;;;;;;;;;;;;;;;6185951;23;19916;-88
2023/05/17 14:34:07;;;;;;;;;;;;;;;;;;6159216;23;19923;-89
2023/05/17 14:36:35;;;;;;;;;;;;;;;;;;6159097;23;19916;-88
2023/05/17 14:39:02;;;;;;;;;;;;;;;;;;6134625;23;19923;-88
2023/05/17 14:41:28;;;;;;;;;;;;;;;;;;6185851;23;20058;-88
2023/05/17 14:43:54;;;;;;;;;;;;;;;;;;6158822;23;19999;-89
2023/05/17 14:46:20;;;;;;;;;;;;;;;;;;6159217;23;19944;-88
2023/05/17 14:48:46;;;;;;;;;;;;;;;;;;6159370;23;19928;-88
2023/05/17 14:51:12;;;;;;;;;;;;;;;;;;6159141;23;19916;-88
2023/05/17 14:53:38;;;;;;;;;;;;;;;;;;6159188;23;19916;-88
2023/05/17 14:56:04;;;;;;;;;;;;;;;;;;6159277;23;19962;-89
2023/05/17 14:58:29;;;;;;;;;;;;;;;;;;6134276;23;19959;-88
2023/05/17 15:00:58;;;;;;;;;;;;;;;;;;6185554;23;20334;-88
2023/05/17 15:03:24;;;;;;;;;;;;;;;;;;6134362;23;19921;-88
2023/05/17 15:05:50;;;;;;;;;;;;;;;;;;6158920;23;20315;-89
2023/05/17 15:08:16;;;;;;;;;;;;;;;;;;6185602;23;19916;-88
2023/05/17 15:10:42;;;;;;;;;;;;;;;;;;6185387;23;19924;-88
2023/05/17 15:13:08;;;;;;;;;;;;;;;;;;6134280;23;19920;-88
2023/05/17 15:15:34;;;;;;;;;;;;;;;;;;6185625;23;19916;-89
2023/05/17 15:18:00;;;;;;;;;;;;;;;;;;6190209;23;19916;-86
2023/05/17 15:20:26;;;;;;;;;;;;;;;;;;6133704;23;19991;-87
2023/05/17 15:22:52;;;;;;;;;;;;;;;;;;6185856;23;19916;-87
2023/05/17 15:25:18;;;;;;;;;;;;;;;;;;6158899;23;19962;-90
2023/05/17 15:27:44;;;;;;;;;;;;;;;;;;6135104;23;19916;-88
2023/05/17 15:30:10;;;;;;;;;;;;;;;;;;6158487;23;19916;-87
2023/05/17 15:32:36;;;;;;;;;;;;;;;;;;6158757;23;19927;-87
2023/05/17 15:35:04;;;;;;;;;;;;;;;;;;6133687;23;19916;-88
2023/05/17 15:37:30;;;;;;;;;;;;;;;;;;6158222;23;19923;-87
2023/05/17 15:39:56;;;;;;;;;;;;;;;;;;6158048;23;19924;-87
2023/05/17 15:42:22;;;;;;;;;;;;;;;;;;6185126;23;19979;-88
2023/05/17 15:44:48;;;;;;;;;;;;;;;;;;6158177;23;20338;-88
2023/05/17 15:47:14;;;;;;;;;;;;;;;;;;6184745;23;19931;-88
2023/05/17 15:49:40;;;;;;;;;;;;;;;;;;6158042;23;19924;-88
2023/05/17 15:52:06;;;;;;;;;;;;;;;;;;6184642;23;19916;-88
2023/05/17 15:54:32;;;;;;;;;;;;;;;;;;6158001;23;19916;-87
2023/05/17 15:56:58;;;;;;;;;;;;;;;;;;6184227;23;20356;-88
2023/05/17 15:59:23;;;;;;;;;;;;;;;;;;6133360;23;19970;-88
2023/05/17 16:01:49;;;;;;;;;;;;;;;;;;6158277;23;19972;-88
2023/05/17 16:04:16;;;;;;;;;;;;;;;;;;6157784;23;19922;-88
2023/05/17 16:06:42;;;;;;;;;;;;;;;;;;6184603;23;19916;-87
2023/05/17 16:09:08;;;;;;;;;;;;;;;;;;6157965;23;20019;-88
2023/05/17 16:11:34;;;;;;;;;;;;;;;;;;6157943;23;20345;-88
2023/05/17 16:14:00;;;;;;;;;;;;;;;;;;6133184;23;19924;-88
2023/05/17 16:16:26;;;;;;;;;;;;;;;;;;6157777;23;19916;-89
2023/05/17 16:18:52;;;;;;;;;;;;;;;;;;6157848;23;19920;-88
2023/05/17 16:21:18;;;;;;;;;;;;;;;;;;6184434;23;19920;-88
2023/05/17 16:23:45;;;;;;;;;;;;;;;;;;6133182;23;19923;-88
2023/05/17 16:26:12;;;;;;;;;;;;;;;;;;6157810;23;19939;-87
2023/05/17 16:28:37;;;;;;;;;;;;;;;;;;6184124;23;20298;-89
2023/05/17 16:31:04;;;;;;;;;;;;;;;;;;6157685;23;19916;-88
2023/05/17 16:33:30;;;;;;;;;;;;;;;;;;6157452;23;19916;-87
2023/05/17 16:35:56;;;;;;;;;;;;;;;;;;6157468;23;20327;-89
2023/05/17 16:38:22;;;;;;;;;;;;;;;;;;6185027;23;20003;-87